sensor_id;sensor_type;location;lat;lon;timestamp;temperature;humidity
23251;DHT22;11794;49.730;10.088;2023-09-07T00:02:14;17.00;99.90
23251;DHT22;11794;49.730;10.088;2023-09-07T00:04:39;17.00;99.90
23251;DHT22;11794;49.730;10.088;2023-09-07T00:07:05;17.10;99.90
23251;DHT22;11794;49.730;10.088;2023-09-07T00:09:30;16.90;99.90
23251;DHT22;11794;49.730;10.088;2023-09-07T00:11:56;16.80;99.90
23251;DHT22;11794;49.730;10.088;2023-09-07T00:14:21;16.80;99.90
23251;DHT22;11794;49.730;10.088;2023-09-07T00:16:47;16.80;99.90
23251;DHT22;11794;49.730;10.088;2023-09-07T00:19:12;16.90;99.90
23251;DHT22;11794;49.730;10.088;2023-09-07T00:21:38;16.70;99.90
23251;DHT22;11794;49.730;10.088;2023-09-07T00:24:03;16.70;99.90
23251;DHT22;11794;49.730;10.088;2023-09-07T00:26:31;16.60;99.90
23251;DHT22;11794;49.730;10.088;2023-09-07T00:28:56;16.60;99.90
23251;DHT22;11794;49.730;10.088;2023-09-07T00:31:22;16.70;99.90
23251;DHT22;11794;49.730;10.088;2023-09-07T00:33:47;16.60;99.90
23251;DHT22;11794;49.730;10.088;2023-09-07T00:36:13;16.60;99.90
23251;DHT22;11794;49.730;10.088;2023-09-07T00:38:38;16.60;99.90
23251;DHT22;11794;49.730;10.088;2023-09-07T00:41:04;16.60;99.90
23251;DHT22;11794;49.730;10.088;2023-09-07T00:43:29;16.50;99.90
23251;DHT22;11794;49.730;10.088;2023-09-07T00:45:55;16.50;99.90
23251;DHT22;11794;49.730;10.088;2023-09-07T00:48:21;16.60;99.90
23251;DHT22;11794;49.730;10.088;2023-09-07T00:50:47;16.60;99.90
23251;DHT22;11794;49.730;10.088;2023-09-07T00:53:14;16.50;99.90
23251;DHT22;11794;49.730;10.088;2023-09-07T00:55:40;16.40;99.90
23251;DHT22;11794;49.730;10.088;2023-09-07T00:58:06;16.40;99.90
23251;DHT22;11794;49.730;10.088;2023-09-07T01:00:32;16.40;99.90
23251;DHT22;11794;49.730;10.088;2023-09-07T01:02:59;16.40;99.90
23251;DHT22;11794;49.730;10.088;2023-09-07T01:05:32;16.30;99.90
23251;DHT22;11794;49.730;10.088;2023-09-07T01:08:16;16.30;99.90
23251;DHT22;11794;49.730;10.088;2023-09-07T01:10:43;16.20;99.90
23251;DHT22;11794;49.730;10.088;2023-09-07T01:13:09;16.20;99.90
23251;DHT22;11794;49.730;10.088;2023-09-07T01:15:35;16.10;99.90
23251;DHT22;11794;49.730;10.088;2023-09-07T01:18:01;16.10;99.90
23251;DHT22;11794;49.730;10.088;2023-09-07T01:20:29;16.10;99.90
23251;DHT22;11794;49.730;10.088;2023-09-07T01:22:55;16.10;99.90
23251;DHT22;11794;49.730;10.088;2023-09-07T01:25:21;16.00;99.90
23251;DHT22;11794;49.730;10.088;2023-09-07T01:27:47;16.00;99.90
23251;DHT22;11794;49.730;10.088;2023-09-07T01:30:13;16.00;99.90
23251;DHT22;11794;49.730;10.088;2023-09-07T01:32:38;15.90;99.90
23251;DHT22;11794;49.730;10.088;2023-09-07T01:35:05;15.90;99.90
23251;DHT22;11794;49.730;10.088;2023-09-07T01:37:31;16.00;99.90
23251;DHT22;11794;49.730;10.088;2023-09-07T01:39:57;15.90;99.90
23251;DHT22;11794;49.730;10.088;2023-09-07T01:42:23;15.90;99.90
23251;DHT22;11794;49.730;10.088;2023-09-07T01:44:48;15.90;99.90
23251;DHT22;11794;49.730;10.088;2023-09-07T01:47:14;15.90;99.90
23251;DHT22;11794;49.730;10.088;2023-09-07T01:49:39;15.90;99.90
23251;DHT22;11794;49.730;10.088;2023-09-07T01:52:05;15.80;99.90
23251;DHT22;11794;49.730;10.088;2023-09-07T01:54:30;15.80;99.90
23251;DHT22;11794;49.730;10.088;2023-09-07T01:56:56;15.80;99.90
23251;DHT22;11794;49.730;10.088;2023-09-07T01:59:21;15.80;99.90
23251;DHT22;11794;49.730;10.088;2023-09-07T02:01:47;15.70;99.90
23251;DHT22;11794;49.730;10.088;2023-09-07T02:04:12;15.60;99.90
23251;DHT22;11794;49.730;10.088;2023-09-07T02:06:38;15.50;99.90
23251;DHT22;11794;49.730;10.088;2023-09-07T02:09:04;15.40;99.90
23251;DHT22;11794;49.730;10.088;2023-09-07T02:11:30;15.40;99.90
23251;DHT22;11794;49.730;10.088;2023-09-07T02:13:55;15.40;99.90
23251;DHT22;11794;49.730;10.088;2023-09-07T02:16:21;15.30;99.90
23251;DHT22;11794;49.730;10.088;2023-09-07T02:18:49;15.40;99.90
23251;DHT22;11794;49.730;10.088;2023-09-07T02:21:15;15.40;99.90
23251;DHT22;11794;49.730;10.088;2023-09-07T02:23:40;15.30;99.90
23251;DHT22;11794;49.730;10.088;2023-09-07T02:26:06;15.30;99.90
23251;DHT22;11794;49.730;10.088;2023-09-07T02:28:31;15.30;99.90
23251;DHT22;11794;49.730;10.088;2023-09-07T02:31:04;15.20;99.90
23251;DHT22;11794;49.730;10.088;2023-09-07T02:33:30;15.20;99.90
23251;DHT22;11794;49.730;10.088;2023-09-07T02:35:55;15.20;99.90
23251;DHT22;11794;49.730;10.088;2023-09-07T02:38:21;15.20;99.90
23251;DHT22;11794;49.730;10.088;2023-09-07T02:40:46;15.20;99.90
23251;DHT22;11794;49.730;10.088;2023-09-07T02:43:12;15.20;99.90
23251;DHT22;11794;49.730;10.088;2023-09-07T02:45:38;15.10;99.90
23251;DHT22;11794;49.730;10.088;2023-09-07T02:48:04;15.10;99.90
23251;DHT22;11794;49.730;10.088;2023-09-07T02:50:32;15.10;99.90
23251;DHT22;11794;49.730;10.088;2023-09-07T02:52:58;15.00;99.90
23251;DHT22;11794;49.730;10.088;2023-09-07T02:55:23;14.90;99.90
23251;DHT22;11794;49.730;10.088;2023-09-07T02:57:49;14.90;99.90
23251;DHT22;11794;49.730;10.088;2023-09-07T03:00:15;14.90;99.90
23251;DHT22;11794;49.730;10.088;2023-09-07T03:02:43;14.80;99.90
23251;DHT22;11794;49.730;10.088;2023-09-07T03:05:08;14.80;99.90
23251;DHT22;11794;49.730;10.088;2023-09-07T03:07:34;14.70;99.90
23251;DHT22;11794;49.730;10.088;2023-09-07T03:10:00;14.70;99.90
23251;DHT22;11794;49.730;10.088;2023-09-07T03:12:26;14.60;99.90
23251;DHT22;11794;49.730;10.088;2023-09-07T03:14:52;14.60;99.90
23251;DHT22;11794;49.730;10.088;2023-09-07T03:17:18;14.50;99.90
23251;DHT22;11794;49.730;10.088;2023-09-07T03:19:46;14.60;99.90
23251;DHT22;11794;49.730;10.088;2023-09-07T03:22:12;14.60;99.90
23251;DHT22;11794;49.730;10.088;2023-09-07T03:24:37;14.60;99.90
23251;DHT22;11794;49.730;10.088;2023-09-07T03:27:03;14.50;99.90
23251;DHT22;11794;49.730;10.088;2023-09-07T03:29:30;14.50;99.90
23251;DHT22;11794;49.730;10.088;2023-09-07T03:31:55;14.60;99.90
23251;DHT22;11794;49.730;10.088;2023-09-07T03:34:21;14.60;99.90
23251;DHT22;11794;49.730;10.088;2023-09-07T03:36:46;14.50;99.90
23251;DHT22;11794;49.730;10.088;2023-09-07T03:39:12;14.50;99.90
23251;DHT22;11794;49.730;10.088;2023-09-07T03:41:37;14.50;99.90
23251;DHT22;11794;49.730;10.088;2023-09-07T03:44:03;14.50;99.90
23251;DHT22;11794;49.730;10.088;2023-09-07T03:46:29;14.30;99.90
23251;DHT22;11794;49.730;10.088;2023-09-07T03:48:54;14.30;99.90
23251;DHT22;11794;49.730;10.088;2023-09-07T03:51:20;14.20;99.90
23251;DHT22;11794;49.730;10.088;2023-09-07T03:53:45;14.30;99.90
23251;DHT22;11794;49.730;10.088;2023-09-07T03:56:11;14.30;99.90
23251;DHT22;11794;49.730;10.088;2023-09-07T03:58:36;14.20;99.90
23251;DHT22;11794;49.730;10.088;2023-09-07T04:01:02;14.30;99.90
23251;DHT22;11794;49.730;10.088;2023-09-07T04:03:28;14.20;99.90
23251;DHT22;11794;49.730;10.088;2023-09-07T04:05:53;14.20;99.90
23251;DHT22;11794;49.730;10.088;2023-09-07T04:08:19;14.20;99.90
23251;DHT22;11794;49.730;10.088;2023-09-07T04:10:44;14.20;99.90
23251;DHT22;11794;49.730;10.088;2023-09-07T04:13:10;14.10;99.90
23251;DHT22;11794;49.730;10.088;2023-09-07T04:15:42;14.10;99.90
23251;DHT22;11794;49.730;10.088;2023-09-07T04:18:09;14.10;99.90
23251;DHT22;11794;49.730;10.088;2023-09-07T04:20:38;14.20;99.90
23251;DHT22;11794;49.730;10.088;2023-09-07T04:23:04;14.20;99.90
23251;DHT22;11794;49.730;10.088;2023-09-07T04:25:29;14.10;99.90
23251;DHT22;11794;49.730;10.088;2023-09-07T04:27:55;14.10;99.90
23251;DHT22;11794;49.730;10.088;2023-09-07T04:30:22;14.00;99.90
23251;DHT22;11794;49.730;10.088;2023-09-07T04:32:48;14.00;99.90
23251;DHT22;11794;49.730;10.088;2023-09-07T04:35:13;14.00;99.90
23251;DHT22;11794;49.730;10.088;2023-09-07T04:37:42;13.90;99.90
23251;DHT22;11794;49.730;10.088;2023-09-07T04:40:08;13.90;99.90
23251;DHT22;11794;49.730;10.088;2023-09-07T04:42:34;13.90;99.90
23251;DHT22;11794;49.730;10.088;2023-09-07T04:45:00;13.90;99.90
23251;DHT22;11794;49.730;10.088;2023-09-07T04:47:25;13.90;99.90
23251;DHT22;11794;49.730;10.088;2023-09-07T04:49:51;13.80;99.90
23251;DHT22;11794;49.730;10.088;2023-09-07T04:52:16;13.90;99.90
23251;DHT22;11794;49.730;10.088;2023-09-07T04:54:43;14.00;99.90
23251;DHT22;11794;49.730;10.088;2023-09-07T04:57:09;13.90;99.90
23251;DHT22;11794;49.730;10.088;2023-09-07T04:59:34;13.90;99.90
23251;DHT22;11794;49.730;10.088;2023-09-07T05:02:00;13.90;99.90
23251;DHT22;11794;49.730;10.088;2023-09-07T05:04:28;13.90;99.90
23251;DHT22;11794;49.730;10.088;2023-09-07T05:06:56;13.90;99.90
23251;DHT22;11794;49.730;10.088;2023-09-07T05:09:22;13.80;99.90
23251;DHT22;11794;49.730;10.088;2023-09-07T05:11:49;13.90;99.90
23251;DHT22;11794;49.730;10.088;2023-09-07T05:14:14;13.90;99.90
23251;DHT22;11794;49.730;10.088;2023-09-07T05:16:42;13.90;99.90
23251;DHT22;11794;49.730;10.088;2023-09-07T05:19:08;13.90;99.90
23251;DHT22;11794;49.730;10.088;2023-09-07T05:21:34;13.90;99.90
23251;DHT22;11794;49.730;10.088;2023-09-07T05:23:59;14.00;99.90
23251;DHT22;11794;49.730;10.088;2023-09-07T05:26:25;14.00;99.90
23251;DHT22;11794;49.730;10.088;2023-09-07T05:28:50;14.10;99.90
23251;DHT22;11794;49.730;10.088;2023-09-07T05:31:16;14.10;99.90
23251;DHT22;11794;49.730;10.088;2023-09-07T05:33:41;14.10;99.90
23251;DHT22;11794;49.730;10.088;2023-09-07T05:36:07;14.20;99.90
23251;DHT22;11794;49.730;10.088;2023-09-07T05:38:32;14.20;99.90
23251;DHT22;11794;49.730;10.088;2023-09-07T05:40:58;14.30;99.90
23251;DHT22;11794;49.730;10.088;2023-09-07T05:43:23;14.30;99.90
23251;DHT22;11794;49.730;10.088;2023-09-07T05:45:49;14.40;99.90
23251;DHT22;11794;49.730;10.088;2023-09-07T05:48:15;14.50;99.90
23251;DHT22;11794;49.730;10.088;2023-09-07T05:50:44;14.60;99.90
23251;DHT22;11794;49.730;10.088;2023-09-07T05:53:10;14.70;99.90
23251;DHT22;11794;49.730;10.088;2023-09-07T05:55:35;14.70;99.90
23251;DHT22;11794;49.730;10.088;2023-09-07T05:58:05;14.80;99.90
23251;DHT22;11794;49.730;10.088;2023-09-07T06:00:31;14.90;99.90
23251;DHT22;11794;49.730;10.088;2023-09-07T06:02:56;15.00;99.90
23251;DHT22;11794;49.730;10.088;2023-09-07T06:05:22;15.10;99.90
23251;DHT22;11794;49.730;10.088;2023-09-07T06:07:48;15.20;99.90
23251;DHT22;11794;49.730;10.088;2023-09-07T06:10:14;15.30;99.90
23251;DHT22;11794;49.730;10.088;2023-09-07T06:12:40;15.50;99.90
23251;DHT22;11794;49.730;10.088;2023-09-07T06:15:06;15.80;99.90
23251;DHT22;11794;49.730;10.088;2023-09-07T06:17:32;15.90;99.90
23251;DHT22;11794;49.730;10.088;2023-09-07T06:19:58;16.10;99.90
23251;DHT22;11794;49.730;10.088;2023-09-07T06:22:23;16.20;99.90
23251;DHT22;11794;49.730;10.088;2023-09-07T06:24:49;16.20;99.90
23251;DHT22;11794;49.730;10.088;2023-09-07T06:27:15;16.40;99.90
23251;DHT22;11794;49.730;10.088;2023-09-07T06:29:40;16.40;99.90
23251;DHT22;11794;49.730;10.088;2023-09-07T06:32:06;16.50;99.90
23251;DHT22;11794;49.730;10.088;2023-09-07T06:34:31;16.60;99.90
23251;DHT22;11794;49.730;10.088;2023-09-07T06:36:57;16.80;99.90
23251;DHT22;11794;49.730;10.088;2023-09-07T06:39:22;16.90;99.90
23251;DHT22;11794;49.730;10.088;2023-09-07T06:41:48;17.00;99.90
23251;DHT22;11794;49.730;10.088;2023-09-07T06:44:14;17.10;99.90
23251;DHT22;11794;49.730;10.088;2023-09-07T06:46:40;17.20;99.90
23251;DHT22;11794;49.730;10.088;2023-09-07T06:49:05;17.30;99.90
23251;DHT22;11794;49.730;10.088;2023-09-07T06:51:31;17.50;99.90
23251;DHT22;11794;49.730;10.088;2023-09-07T06:53:57;17.60;99.90
23251;DHT22;11794;49.730;10.088;2023-09-07T06:56:22;17.70;99.90
23251;DHT22;11794;49.730;10.088;2023-09-07T06:58:48;17.90;99.90
23251;DHT22;11794;49.730;10.088;2023-09-07T07:01:14;18.00;99.90
23251;DHT22;11794;49.730;10.088;2023-09-07T07:03:39;18.10;99.90
23251;DHT22;11794;49.730;10.088;2023-09-07T07:06:05;18.20;99.90
23251;DHT22;11794;49.730;10.088;2023-09-07T07:08:31;18.30;99.90
23251;DHT22;11794;49.730;10.088;2023-09-07T07:10:56;18.40;99.90
23251;DHT22;11794;49.730;10.088;2023-09-07T07:13:22;18.50;99.90
23251;DHT22;11794;49.730;10.088;2023-09-07T07:15:47;18.70;99.90
23251;DHT22;11794;49.730;10.088;2023-09-07T07:18:13;18.90;99.90
23251;DHT22;11794;49.730;10.088;2023-09-07T07:20:41;19.00;99.90
23251;DHT22;11794;49.730;10.088;2023-09-07T07:23:07;19.20;99.90
23251;DHT22;11794;49.730;10.088;2023-09-07T07:25:33;19.40;99.90
23251;DHT22;11794;49.730;10.088;2023-09-07T07:28:00;19.70;99.90
23251;DHT22;11794;49.730;10.088;2023-09-07T07:30:32;19.80;99.90
23251;DHT22;11794;49.730;10.088;2023-09-07T07:32:58;20.00;99.90
23251;DHT22;11794;49.730;10.088;2023-09-07T07:35:23;20.20;99.90
23251;DHT22;11794;49.730;10.088;2023-09-07T07:37:52;20.50;99.90
23251;DHT22;11794;49.730;10.088;2023-09-07T07:40:18;20.60;99.90
23251;DHT22;11794;49.730;10.088;2023-09-07T07:42:45;20.90;99.90
23251;DHT22;11794;49.730;10.088;2023-09-07T07:45:11;21.00;99.90
23251;DHT22;11794;49.730;10.088;2023-09-07T07:47:38;21.20;99.90
23251;DHT22;11794;49.730;10.088;2023-09-07T07:50:04;21.40;99.90
23251;DHT22;11794;49.730;10.088;2023-09-07T07:52:29;21.70;99.90
23251;DHT22;11794;49.730;10.088;2023-09-07T07:54:55;21.90;99.90
23251;DHT22;11794;49.730;10.088;2023-09-07T07:57:21;22.40;99.90
23251;DHT22;11794;49.730;10.088;2023-09-07T07:59:46;22.90;99.90
23251;DHT22;11794;49.730;10.088;2023-09-07T08:02:12;23.60;99.90
23251;DHT22;11794;49.730;10.088;2023-09-07T08:04:38;24.20;99.90
23251;DHT22;11794;49.730;10.088;2023-09-07T08:07:03;25.00;99.90
23251;DHT22;11794;49.730;10.088;2023-09-07T08:09:32;25.40;99.90
23251;DHT22;11794;49.730;10.088;2023-09-07T08:11:57;25.90;99.90
23251;DHT22;11794;49.730;10.088;2023-09-07T08:14:24;26.50;99.90
23251;DHT22;11794;49.730;10.088;2023-09-07T08:16:50;27.00;99.90
23251;DHT22;11794;49.730;10.088;2023-09-07T08:19:16;27.70;99.90
23251;DHT22;11794;49.730;10.088;2023-09-07T08:21:42;28.20;99.90
23251;DHT22;11794;49.730;10.088;2023-09-07T08:24:08;28.60;99.90
23251;DHT22;11794;49.730;10.088;2023-09-07T08:26:35;28.60;99.90
23251;DHT22;11794;49.730;10.088;2023-09-07T08:29:00;29.00;99.90
23251;DHT22;11794;49.730;10.088;2023-09-07T08:31:32;29.30;99.90
23251;DHT22;11794;49.730;10.088;2023-09-07T08:34:04;29.50;99.30
23251;DHT22;11794;49.730;10.088;2023-09-07T08:36:30;29.20;98.50
23251;DHT22;11794;49.730;10.088;2023-09-07T08:39:02;28.80;99.80
23251;DHT22;11794;49.730;10.088;2023-09-07T08:41:37;28.80;97.90
23251;DHT22;11794;49.730;10.088;2023-09-07T08:44:08;29.00;98.50
23251;DHT22;11794;49.730;10.088;2023-09-07T08:46:34;29.60;98.30
23251;DHT22;11794;49.730;10.088;2023-09-07T08:49:00;30.10;96.60
23251;DHT22;11794;49.730;10.088;2023-09-07T08:51:27;29.90;96.00
23251;DHT22;11794;49.730;10.088;2023-09-07T08:53:57;30.30;97.10
23251;DHT22;11794;49.730;10.088;2023-09-07T08:56:23;30.70;96.60
23251;DHT22;11794;49.730;10.088;2023-09-07T08:58:49;30.90;95.50
23251;DHT22;11794;49.730;10.088;2023-09-07T09:01:18;30.90;94.30
23251;DHT22;11794;49.730;10.088;2023-09-07T09:03:43;30.90;95.30
23251;DHT22;11794;49.730;10.088;2023-09-07T09:06:12;31.20;95.00
23251;DHT22;11794;49.730;10.088;2023-09-07T09:08:43;31.50;94.10
23251;DHT22;11794;49.730;10.088;2023-09-07T09:11:09;31.90;94.30
23251;DHT22;11794;49.730;10.088;2023-09-07T09:13:36;32.20;94.30
23251;DHT22;11794;49.730;10.088;2023-09-07T09:16:02;32.40;93.00
23251;DHT22;11794;49.730;10.088;2023-09-07T09:18:28;32.50;93.10
23251;DHT22;11794;49.730;10.088;2023-09-07T09:20:55;32.50;92.10
23251;DHT22;11794;49.730;10.088;2023-09-07T09:23:21;32.20;92.40
23251;DHT22;11794;49.730;10.088;2023-09-07T09:25:48;32.30;92.90
23251;DHT22;11794;49.730;10.088;2023-09-07T09:28:14;32.60;92.00
23251;DHT22;11794;49.730;10.088;2023-09-07T09:30:41;32.80;91.90
23251;DHT22;11794;49.730;10.088;2023-09-07T09:33:09;33.10;91.50
23251;DHT22;11794;49.730;10.088;2023-09-07T09:35:35;33.10;90.60
23251;DHT22;11794;49.730;10.088;2023-09-07T09:38:01;33.20;91.20
23251;DHT22;11794;49.730;10.088;2023-09-07T09:40:33;33.80;89.40
23251;DHT22;11794;49.730;10.088;2023-09-07T09:43:02;34.10;88.60
23251;DHT22;11794;49.730;10.088;2023-09-07T09:45:29;34.30;87.90
23251;DHT22;11794;49.730;10.088;2023-09-07T09:47:55;34.70;85.20
23251;DHT22;11794;49.730;10.088;2023-09-07T09:50:22;34.80;84.90
23251;DHT22;11794;49.730;10.088;2023-09-07T09:52:48;34.80;82.60
23251;DHT22;11794;49.730;10.088;2023-09-07T09:55:15;34.90;84.30
23251;DHT22;11794;49.730;10.088;2023-09-07T09:57:41;35.20;82.00
23251;DHT22;11794;49.730;10.088;2023-09-07T10:00:08;35.20;82.10
23251;DHT22;11794;49.730;10.088;2023-09-07T10:03:12;35.50;79.40
23251;DHT22;11794;49.730;10.088;2023-09-07T10:05:39;34.90;82.30
23251;DHT22;11794;49.730;10.088;2023-09-07T10:08:11;35.30;78.40
23251;DHT22;11794;49.730;10.088;2023-09-07T10:10:37;35.60;77.50
23251;DHT22;11794;49.730;10.088;2023-09-07T10:13:04;35.20;79.10
23251;DHT22;11794;49.730;10.088;2023-09-07T10:15:31;35.40;79.30
23251;DHT22;11794;49.730;10.088;2023-09-07T10:18:12;35.70;79.10
23251;DHT22;11794;49.730;10.088;2023-09-07T10:23:16;36.30;75.40
23251;DHT22;11794;49.730;10.088;2023-09-07T10:25:42;36.50;74.60
23251;DHT22;11794;49.730;10.088;2023-09-07T10:28:20;36.50;73.80
23251;DHT22;11794;49.730;10.088;2023-09-07T10:30:45;36.60;73.60
23251;DHT22;11794;49.730;10.088;2023-09-07T10:33:22;36.70;71.40
23251;DHT22;11794;49.730;10.088;2023-09-07T10:35:48;36.50;74.30
23251;DHT22;11794;49.730;10.088;2023-09-07T10:38:14;36.50;74.40
23251;DHT22;11794;49.730;10.088;2023-09-07T10:40:40;36.90;74.00
23251;DHT22;11794;49.730;10.088;2023-09-07T10:43:06;37.50;72.50
23251;DHT22;11794;49.730;10.088;2023-09-07T10:45:33;37.20;71.60
23251;DHT22;11794;49.730;10.088;2023-09-07T10:47:59;37.40;71.10
23251;DHT22;11794;49.730;10.088;2023-09-07T10:50:25;37.40;69.80
23251;DHT22;11794;49.730;10.088;2023-09-07T10:52:50;37.30;69.90
23251;DHT22;11794;49.730;10.088;2023-09-07T10:55:16;37.40;69.00
23251;DHT22;11794;49.730;10.088;2023-09-07T10:57:46;37.50;70.40
23251;DHT22;11794;49.730;10.088;2023-09-07T11:00:13;37.30;70.50
23251;DHT22;11794;49.730;10.088;2023-09-07T11:02:42;37.20;68.70
23251;DHT22;11794;49.730;10.088;2023-09-07T11:05:08;37.50;68.40
23251;DHT22;11794;49.730;10.088;2023-09-07T11:07:35;38.00;65.70
23251;DHT22;11794;49.730;10.088;2023-09-07T11:10:01;37.90;66.10
23251;DHT22;11794;49.730;10.088;2023-09-07T11:12:29;38.10;64.20
23251;DHT22;11794;49.730;10.088;2023-09-07T11:14:55;37.80;63.40
23251;DHT22;11794;49.730;10.088;2023-09-07T11:17:26;37.80;64.40
23251;DHT22;11794;49.730;10.088;2023-09-07T11:19:53;38.10;63.30
23251;DHT22;11794;49.730;10.088;2023-09-07T11:22:19;38.10;62.10
23251;DHT22;11794;49.730;10.088;2023-09-07T11:24:45;37.70;63.80
23251;DHT22;11794;49.730;10.088;2023-09-07T11:27:11;37.70;63.80
23251;DHT22;11794;49.730;10.088;2023-09-07T11:29:36;38.30;64.30
23251;DHT22;11794;49.730;10.088;2023-09-07T11:32:10;38.60;60.30
23251;DHT22;11794;49.730;10.088;2023-09-07T11:34:46;38.90;60.70
23251;DHT22;11794;49.730;10.088;2023-09-07T11:37:12;38.80;61.00
23251;DHT22;11794;49.730;10.088;2023-09-07T11:39:38;38.60;59.20
23251;DHT22;11794;49.730;10.088;2023-09-07T11:42:04;38.50;59.50
23251;DHT22;11794;49.730;10.088;2023-09-07T11:44:29;38.50;59.40
23251;DHT22;11794;49.730;10.088;2023-09-07T11:46:55;38.90;59.60
23251;DHT22;11794;49.730;10.088;2023-09-07T11:49:21;38.90;58.60
23251;DHT22;11794;49.730;10.088;2023-09-07T11:51:46;38.90;58.20
23251;DHT22;11794;49.730;10.088;2023-09-07T11:54:12;39.00;57.10
23251;DHT22;11794;49.730;10.088;2023-09-07T11:56:38;38.40;58.00
23251;DHT22;11794;49.730;10.088;2023-09-07T11:59:08;38.20;58.60
23251;DHT22;11794;49.730;10.088;2023-09-07T12:01:34;38.60;61.20
23251;DHT22;11794;49.730;10.088;2023-09-07T12:04:00;38.90;57.40
23251;DHT22;11794;49.730;10.088;2023-09-07T12:06:25;39.30;57.20
23251;DHT22;11794;49.730;10.088;2023-09-07T12:09:04;39.80;58.90
23251;DHT22;11794;49.730;10.088;2023-09-07T12:11:30;40.70;56.50
23251;DHT22;11794;49.730;10.088;2023-09-07T12:13:56;40.80;54.40
23251;DHT22;11794;49.730;10.088;2023-09-07T12:16:22;41.00;54.90
23251;DHT22;11794;49.730;10.088;2023-09-07T12:18:47;41.00;54.10
23251;DHT22;11794;49.730;10.088;2023-09-07T12:21:13;41.00;54.60
23251;DHT22;11794;49.730;10.088;2023-09-07T12:23:39;41.20;54.20
23251;DHT22;11794;49.730;10.088;2023-09-07T12:26:04;41.10;55.30
23251;DHT22;11794;49.730;10.088;2023-09-07T12:28:30;41.10;53.20
23251;DHT22;11794;49.730;10.088;2023-09-07T12:30:57;40.70;55.70
23251;DHT22;11794;49.730;10.088;2023-09-07T12:33:23;41.20;54.30
23251;DHT22;11794;49.730;10.088;2023-09-07T12:35:49;41.60;54.60
23251;DHT22;11794;49.730;10.088;2023-09-07T12:38:14;42.10;53.60
23251;DHT22;11794;49.730;10.088;2023-09-07T12:40:43;42.30;53.20
23251;DHT22;11794;49.730;10.088;2023-09-07T12:43:09;42.70;52.50
23251;DHT22;11794;49.730;10.088;2023-09-07T12:45:35;43.20;52.70
23251;DHT22;11794;49.730;10.088;2023-09-07T12:48:00;43.50;51.30
23251;DHT22;11794;49.730;10.088;2023-09-07T12:50:27;43.50;50.10
23251;DHT22;11794;49.730;10.088;2023-09-07T12:52:52;43.60;51.20
23251;DHT22;11794;49.730;10.088;2023-09-07T12:55:19;43.80;50.40
23251;DHT22;11794;49.730;10.088;2023-09-07T12:57:45;44.40;50.40
23251;DHT22;11794;49.730;10.088;2023-09-07T13:00:11;44.70;49.00
23251;DHT22;11794;49.730;10.088;2023-09-07T13:02:37;44.60;48.90
23251;DHT22;11794;49.730;10.088;2023-09-07T13:05:03;44.70;48.10
23251;DHT22;11794;49.730;10.088;2023-09-07T13:07:31;44.50;49.00
23251;DHT22;11794;49.730;10.088;2023-09-07T13:10:01;44.90;48.20
23251;DHT22;11794;49.730;10.088;2023-09-07T13:12:31;44.60;47.60
23251;DHT22;11794;49.730;10.088;2023-09-07T13:14:57;44.30;48.10
23251;DHT22;11794;49.730;10.088;2023-09-07T13:17:23;44.80;47.90
23251;DHT22;11794;49.730;10.088;2023-09-07T13:19:48;44.70;48.20
23251;DHT22;11794;49.730;10.088;2023-09-07T13:22:14;44.60;47.80
23251;DHT22;11794;49.730;10.088;2023-09-07T13:24:39;44.60;48.50
23251;DHT22;11794;49.730;10.088;2023-09-07T13:27:05;45.00;47.70
23251;DHT22;11794;49.730;10.088;2023-09-07T13:29:32;45.00;46.90
23251;DHT22;11794;49.730;10.088;2023-09-07T13:31:57;44.00;46.30
23251;DHT22;11794;49.730;10.088;2023-09-07T13:34:24;44.00;47.20
23251;DHT22;11794;49.730;10.088;2023-09-07T13:36:49;44.70;47.60
23251;DHT22;11794;49.730;10.088;2023-09-07T13:39:15;45.00;46.60
23251;DHT22;11794;49.730;10.088;2023-09-07T13:41:40;45.40;46.00
23251;DHT22;11794;49.730;10.088;2023-09-07T13:44:06;45.70;44.90
23251;DHT22;11794;49.730;10.088;2023-09-07T13:46:32;45.50;46.30
23251;DHT22;11794;49.730;10.088;2023-09-07T13:48:58;45.60;44.70
23251;DHT22;11794;49.730;10.088;2023-09-07T13:51:23;45.50;45.20
23251;DHT22;11794;49.730;10.088;2023-09-07T13:53:50;45.20;45.20
23251;DHT22;11794;49.730;10.088;2023-09-07T13:56:15;45.10;45.20
23251;DHT22;11794;49.730;10.088;2023-09-07T13:58:41;44.60;45.50
23251;DHT22;11794;49.730;10.088;2023-09-07T14:01:07;44.60;45.20
23251;DHT22;11794;49.730;10.088;2023-09-07T14:03:32;44.60;45.20
23251;DHT22;11794;49.730;10.088;2023-09-07T14:05:58;44.10;45.90
23251;DHT22;11794;49.730;10.088;2023-09-07T14:08:23;44.00;45.90
23251;DHT22;11794;49.730;10.088;2023-09-07T14:10:52;44.00;45.80
23251;DHT22;11794;49.730;10.088;2023-09-07T14:13:18;44.10;45.30
23251;DHT22;11794;49.730;10.088;2023-09-07T14:15:44;43.70;45.60
23251;DHT22;11794;49.730;10.088;2023-09-07T14:18:10;43.60;45.60
23251;DHT22;11794;49.730;10.088;2023-09-07T14:20:35;43.50;45.60
23251;DHT22;11794;49.730;10.088;2023-09-07T14:23:01;43.50;45.40
23251;DHT22;11794;49.730;10.088;2023-09-07T14:25:27;43.60;45.00
23251;DHT22;11794;49.730;10.088;2023-09-07T14:27:53;43.70;45.20
23251;DHT22;11794;49.730;10.088;2023-09-07T14:30:18;43.60;45.50
23251;DHT22;11794;49.730;10.088;2023-09-07T14:32:44;43.60;44.30
23251;DHT22;11794;49.730;10.088;2023-09-07T14:35:12;43.70;44.70
23251;DHT22;11794;49.730;10.088;2023-09-07T14:37:38;43.30;45.00
23251;DHT22;11794;49.730;10.088;2023-09-07T14:40:04;43.10;45.40
23251;DHT22;11794;49.730;10.088;2023-09-07T14:42:30;42.20;46.00
23251;DHT22;11794;49.730;10.088;2023-09-07T14:44:55;40.50;46.80
23251;DHT22;11794;49.730;10.088;2023-09-07T14:47:23;38.80;48.90
23251;DHT22;11794;49.730;10.088;2023-09-07T14:49:51;38.10;50.10
23251;DHT22;11794;49.730;10.088;2023-09-07T14:52:17;38.10;50.00
23251;DHT22;11794;49.730;10.088;2023-09-07T14:54:43;37.90;49.40
23251;DHT22;11794;49.730;10.088;2023-09-07T14:57:09;36.00;51.20
23251;DHT22;11794;49.730;10.088;2023-09-07T14:59:34;35.10;53.80
23251;DHT22;11794;49.730;10.088;2023-09-07T15:02:00;34.20;54.20
23251;DHT22;11794;49.730;10.088;2023-09-07T15:04:25;33.40;55.80
23251;DHT22;11794;49.730;10.088;2023-09-07T15:06:51;32.90;55.50
23251;DHT22;11794;49.730;10.088;2023-09-07T15:09:17;32.60;55.60
23251;DHT22;11794;49.730;10.088;2023-09-07T15:11:42;32.50;56.60
23251;DHT22;11794;49.730;10.088;2023-09-07T15:14:08;32.30;57.30